createdAt,value
2023-03-06T00:01:09.478Z,20.52
2023-03-06T00:04:15.021Z,25.50
2023-03-06T00:07:19.527Z,23.15
2023-03-06T00:10:30.530Z,20.02
2023-03-06T00:13:35.120Z,17.45
2023-03-06T00:16:39.592Z,21.10
2023-03-06T00:19:43.511Z,19.30
2023-03-06T00:22:47.820Z,26.52
2023-03-06T00:25:52.204Z,25.27
2023-03-06T00:28:56.412Z,26.80
2023-03-06T00:32:00.700Z,32.75
2023-03-06T00:35:05.739Z,26.90
2023-03-06T00:38:12.477Z,30.00
2023-03-06T00:41:17.140Z,29.15
2023-03-06T00:44:21.572Z,27.75
2023-03-06T00:47:25.970Z,27.50
2023-03-06T00:50:30.131Z,27.98
2023-03-06T00:53:34.373Z,20.55
2023-03-06T00:56:38.575Z,22.92
2023-03-06T00:59:43.018Z,19.65
2023-03-06T01:02:47.537Z,20.48
2023-03-06T01:05:51.782Z,17.98
2023-03-06T01:08:56.003Z,19.02
2023-03-06T01:12:00.473Z,13.73
2023-03-06T01:15:06.884Z,13.93
2023-03-06T01:18:11.368Z,9.57
2023-03-06T01:21:16.248Z,14.93
2023-03-06T01:24:20.371Z,10.63
2023-03-06T01:27:24.709Z,10.02
2023-03-06T01:30:29.302Z,5.35
2023-03-06T01:33:35.404Z,5.55
2023-03-06T01:36:39.976Z,5.28
2023-03-06T01:39:44.286Z,5.60
2023-03-06T01:42:50.597Z,5.55
2023-03-06T01:46:25.269Z,6.10
2023-03-06T01:49:39.295Z,6.05
2023-03-06T01:52:59.549Z,4.50
2023-03-06T01:56:04.722Z,6.93
2023-03-06T01:59:09.259Z,5.78
2023-03-06T02:02:15.223Z,5.43
2023-03-06T02:05:20.000Z,3.80
2023-03-06T02:08:26.531Z,4.43
2023-03-06T02:11:31.118Z,5.10
2023-03-06T02:14:36.288Z,5.15
2023-03-06T02:17:43.660Z,8.15
2023-03-06T02:20:54.323Z,5.70
2023-03-06T02:24:27.755Z,4.95
2023-03-06T02:27:32.420Z,2.15
2023-03-06T02:30:37.743Z,5.65
2023-03-06T02:33:41.929Z,6.10
2023-03-06T02:36:52.173Z,9.45
2023-03-06T02:40:09.408Z,4.07
2023-03-06T02:43:18.764Z,3.40
2023-03-06T02:46:23.127Z,2.47
2023-03-06T02:49:27.579Z,7.88
2023-03-06T02:52:32.390Z,7.32
2023-03-06T02:55:37.496Z,3.08
2023-03-06T02:58:43.005Z,9.98
2023-03-06T03:01:47.813Z,2.72
2023-03-06T03:04:52.447Z,9.10
2023-03-06T03:07:56.977Z,9.70
2023-03-06T03:11:02.201Z,10.73
2023-03-06T03:14:06.646Z,11.43
2023-03-06T03:17:11.066Z,12.88
2023-03-06T03:20:20.311Z,7.95
2023-03-06T03:23:25.998Z,9.45
2023-03-06T03:26:30.226Z,12.05
2023-03-06T03:29:34.776Z,11.05
2023-03-06T03:32:38.863Z,16.30
2023-03-06T03:35:43.470Z,16.73
2023-03-06T03:38:47.828Z,17.80
2023-03-06T03:41:52.447Z,11.93
2023-03-06T03:44:56.653Z,21.67
2023-03-06T03:48:00.938Z,16.02
2023-03-06T03:51:13.722Z,20.33
2023-03-06T03:54:18.042Z,22.23
2023-03-06T03:57:22.238Z,17.88
2023-03-06T04:00:27.002Z,19.42
2023-03-06T04:03:31.268Z,21.73
2023-03-06T04:06:35.501Z,36.50
2023-03-06T04:09:39.900Z,24.00
2023-03-06T04:12:44.184Z,24.65
2023-03-06T04:15:51.995Z,17.50
2023-03-06T04:18:56.605Z,17.65
2023-03-06T04:22:02.277Z,19.90
2023-03-06T04:25:07.197Z,17.35
2023-03-06T04:28:12.324Z,25.88
2023-03-06T04:31:16.736Z,22.38
2023-03-06T04:34:20.926Z,28.58
2023-03-06T04:37:26.559Z,25.02
2023-03-06T04:40:34.296Z,16.88
2023-03-06T04:43:39.554Z,14.82
2023-03-06T04:46:44.225Z,19.23
2023-03-06T04:49:48.536Z,15.40
2023-03-06T04:52:52.831Z,17.23
2023-03-06T04:55:57.152Z,12.05
2023-03-06T04:59:04.154Z,12.88
2023-03-06T05:02:08.973Z,17.00
2023-03-06T05:05:14.564Z,11.90
2023-03-06T05:08:18.979Z,20.10
2023-03-06T05:11:23.178Z,17.45
2023-03-06T05:14:30.553Z,21.05
2023-03-06T05:17:35.424Z,10.40
2023-03-06T05:20:39.993Z,12.30
2023-03-06T05:23:44.200Z,12.95
2023-03-06T05:26:48.380Z,16.52
2023-03-06T05:29:52.421Z,15.60
2023-03-06T05:32:56.687Z,21.90
2023-03-06T05:36:01.702Z,17.13
2023-03-06T05:39:06.457Z,26.08
2023-03-06T05:42:11.065Z,27.67
2023-03-06T05:45:15.198Z,66.40
2023-03-06T05:48:19.377Z,69.53
2023-03-06T05:51:24.526Z,66.40
2023-03-06T05:54:28.844Z,70.18
2023-03-06T05:57:33.151Z,50.95
2023-03-06T06:00:37.329Z,78.18
2023-03-06T06:03:42.178Z,70.53
2023-03-06T06:06:46.881Z,130.38
2023-03-06T06:09:53.509Z,82.22
2023-03-06T06:12:58.089Z,135.07
2023-03-06T06:16:19.413Z,72.85
2023-03-06T06:19:23.956Z,54.10
2023-03-06T06:22:28.054Z,66.18
2023-03-06T06:25:33.017Z,74.15
2023-03-06T06:28:37.855Z,66.97
2023-03-06T06:31:42.684Z,59.13
2023-03-06T06:34:47.360Z,65.60
2023-03-06T06:37:52.012Z,60.28
2023-03-06T06:41:27.140Z,53.67
2023-03-06T06:47:26.104Z,78.70
2023-03-06T06:50:30.661Z,35.60
2023-03-06T06:53:35.461Z,51.05
2023-03-06T06:56:39.815Z,46.28
2023-03-06T06:59:44.211Z,47.33
2023-03-06T07:02:51.315Z,26.98
2023-03-06T07:05:56.140Z,30.70
2023-03-06T07:09:00.333Z,31.15
2023-03-06T07:12:05.088Z,35.65
2023-03-06T07:15:14.027Z,34.85
2023-03-06T07:18:18.602Z,56.65
2023-03-06T07:21:23.215Z,44.20
2023-03-06T07:24:28.397Z,51.50
2023-03-06T07:27:32.922Z,62.35
2023-03-06T07:30:37.537Z,36.90
2023-03-06T07:33:42.315Z,43.95
2023-03-06T07:36:46.625Z,44.95
2023-03-06T07:39:50.995Z,70.30
2023-03-06T07:43:09.251Z,60.75
2023-03-06T07:46:21.589Z,50.42
2023-03-06T07:49:26.009Z,93.50
2023-03-06T07:52:30.382Z,46.60
2023-03-06T07:55:35.037Z,58.55
2023-03-06T07:58:42.348Z,23.88
2023-03-06T08:01:46.856Z,34.72
2023-03-06T08:04:55.662Z,29.52
2023-03-06T08:08:00.177Z,42.00
2023-03-06T08:11:09.698Z,39.53
2023-03-06T08:14:14.124Z,56.53
2023-03-06T08:17:18.255Z,40.70
2023-03-06T08:20:22.342Z,43.33
2023-03-06T08:23:26.910Z,48.85
2023-03-06T08:26:32.340Z,51.03
2023-03-06T08:29:36.537Z,41.20
2023-03-06T08:32:40.909Z,39.40
2023-03-06T08:35:45.561Z,66.50
2023-03-06T08:38:50.288Z,91.43
2023-03-06T08:41:55.122Z,59.95
2023-03-06T08:44:59.416Z,57.80
2023-03-06T08:48:04.502Z,47.25
2023-03-06T08:51:09.994Z,37.58
2023-03-06T08:54:14.773Z,43.58
2023-03-06T08:57:19.074Z,41.00
2023-03-06T09:00:24.516Z,36.90
2023-03-06T09:03:28.735Z,34.22
2023-03-06T09:06:36.951Z,33.00
2023-03-06T09:09:41.275Z,35.58
2023-03-06T09:12:51.395Z,29.90
2023-03-06T09:15:56.837Z,30.30
2023-03-06T09:19:01.182Z,31.75
2023-03-06T09:22:05.529Z,34.58
2023-03-06T09:25:13.170Z,29.52
2023-03-06T09:28:18.016Z,22.48
2023-03-06T09:31:22.554Z,26.25
2023-03-06T09:34:27.729Z,26.05
2023-03-06T09:37:32.466Z,20.10
2023-03-06T09:40:58.399Z,20.65
2023-03-06T09:44:14.621Z,16.38
2023-03-06T09:48:04.157Z,14.07
2023-03-06T09:51:17.154Z,19.58
2023-03-06T09:54:32.804Z,11.48
2023-03-06T09:57:59.831Z,12.32
2023-03-06T10:01:23.542Z,12.48
2023-03-06T10:04:43.942Z,12.45
2023-03-06T10:08:23.241Z,11.48
2023-03-06T10:12:03.741Z,10.07
2023-03-06T10:15:26.794Z,9.32
2023-03-06T10:18:32.217Z,10.80
2023-03-06T10:21:50.233Z,7.20
2023-03-06T10:25:29.545Z,4.50
2023-03-06T10:28:57.691Z,6.28
2023-03-06T10:32:46.177Z,4.55
2023-03-06T10:35:56.305Z,5.00
2023-03-06T10:39:04.662Z,4.47
2023-03-06T10:42:09.453Z,4.60
2023-03-06T10:45:17.657Z,5.13
2023-03-06T10:48:29.934Z,3.08
2023-03-06T10:51:35.528Z,7.57
2023-03-06T10:54:43.634Z,3.65
2023-03-06T10:57:48.204Z,7.32
2023-03-06T11:01:21.951Z,3.83
2023-03-06T11:04:35.610Z,9.10
2023-03-06T11:07:56.038Z,2.85
2023-03-06T11:11:08.817Z,3.35
2023-03-06T11:14:27.468Z,2.85
2023-03-06T11:17:33.295Z,5.00
2023-03-06T11:20:52.904Z,2.78
2023-03-06T11:24:20.028Z,9.13
2023-03-06T11:27:34.480Z,3.72
2023-03-06T11:30:49.938Z,3.78
2023-03-06T11:34:05.991Z,5.07
2023-03-06T11:37:32.316Z,0.65
2023-03-06T11:41:00.292Z,5.13
2023-03-06T11:44:46.437Z,3.28
2023-03-06T11:48:15.894Z,7.85
2023-03-06T11:51:28.609Z,12.10
2023-03-06T11:54:33.744Z,4.95
2023-03-06T11:58:29.993Z,4.55
2023-03-06T12:02:02.586Z,1.33
2023-03-06T12:05:31.673Z,9.27
2023-03-06T12:09:06.278Z,3.90
2023-03-06T12:12:30.664Z,2.17
2023-03-06T12:16:02.923Z,3.58
2023-03-06T12:19:46.255Z,5.68
2023-03-06T12:23:16.833Z,1.98
2023-03-06T12:26:42.158Z,4.80
2023-03-06T12:30:11.290Z,1.75
2023-03-06T12:34:04.131Z,6.18
2023-03-06T12:37:21.525Z,3.28
2023-03-06T12:40:50.330Z,6.60
2023-03-06T12:44:16.394Z,2.75
2023-03-06T12:47:23.698Z,4.13
2023-03-06T12:50:37.013Z,4.20
2023-03-06T12:53:42.296Z,1.17
2023-03-06T12:56:48.713Z,4.32
2023-03-06T12:59:54.706Z,3.67
2023-03-06T13:03:24.392Z,4.97
2023-03-06T13:06:56.790Z,2.67
2023-03-06T13:10:32.116Z,7.82
2023-03-06T13:13:47.244Z,5.43
2023-03-06T13:16:51.778Z,4.00
2023-03-06T13:20:45.006Z,3.83
2023-03-06T13:23:52.306Z,4.50
2023-03-06T13:27:00.123Z,3.42
2023-03-06T13:30:24.102Z,3.10
2023-03-06T13:33:30.063Z,3.75
2023-03-06T13:36:39.466Z,6.57
2023-03-06T13:40:14.380Z,7.78
2023-03-06T13:43:21.952Z,8.15
2023-03-06T13:46:37.017Z,2.20
2023-03-06T13:49:47.488Z,7.30
2023-03-06T13:53:08.358Z,4.57
2023-03-06T13:56:34.198Z,4.30
2023-03-06T14:00:14.328Z,1.85
2023-03-06T14:04:00.111Z,6.88
2023-03-06T14:07:11.668Z,2.28
2023-03-06T14:10:26.719Z,3.65
2023-03-06T14:13:47.137Z,2.85
2023-03-06T14:16:53.577Z,8.05
2023-03-06T14:20:15.554Z,2.03
2023-03-06T14:23:32.367Z,7.70
2023-03-06T14:26:48.635Z,6.85
2023-03-06T14:30:11.881Z,21.58
2023-03-06T14:33:42.057Z,5.10
2023-03-06T14:36:50.117Z,5.85
2023-03-06T14:39:56.263Z,9.63
2023-03-06T14:43:18.851Z,8.18
2023-03-06T14:46:23.657Z,5.53
2023-03-06T14:49:28.421Z,4.82
2023-03-06T14:52:33.537Z,2.47
2023-03-06T14:55:38.057Z,7.30
2023-03-06T14:59:01.400Z,6.45
2023-03-06T15:02:11.158Z,4.13
2023-03-06T15:05:29.856Z,3.45
2023-03-06T15:08:39.270Z,3.22
2023-03-06T15:12:29.719Z,7.50
2023-03-06T15:15:34.063Z,2.25
2023-03-06T15:19:00.119Z,4.45
2023-03-06T15:22:05.021Z,5.57
2023-03-06T15:25:26.812Z,6.82
2023-03-06T15:28:38.602Z,5.22
2023-03-06T15:31:46.698Z,14.60
2023-03-06T15:35:37.342Z,13.93
2023-03-06T15:38:45.453Z,4.93
2023-03-06T15:42:09.001Z,4.10
2023-03-06T15:45:22.700Z,19.30
2023-03-06T15:48:28.389Z,12.23
2023-03-06T15:51:33.487Z,7.07
2023-03-06T15:54:38.071Z,7.90
2023-03-06T15:57:55.324Z,4.28
2023-03-06T16:01:06.132Z,8.68
2023-03-06T16:04:10.762Z,3.72
2023-03-06T16:07:15.977Z,4.68
2023-03-06T16:10:27.510Z,4.95
2023-03-06T16:13:33.519Z,21.02
2023-03-06T16:16:39.580Z,7.35
2023-03-06T16:19:44.219Z,8.50
2023-03-06T16:22:49.847Z,4.03
2023-03-06T16:25:54.067Z,6.03
2023-03-06T16:28:58.441Z,7.05
2023-03-06T16:32:03.309Z,9.48
2023-03-06T16:35:08.009Z,5.15
2023-03-06T16:38:12.366Z,4.32
2023-03-06T16:41:18.405Z,7.50
2023-03-06T16:44:22.942Z,3.60
2023-03-06T16:47:27.021Z,1.73
2023-03-06T16:50:36.911Z,6.47
2023-03-06T16:53:41.137Z,4.82
2023-03-06T16:56:46.181Z,5.57
2023-03-06T16:59:51.404Z,11.85
2023-03-06T17:02:56.137Z,7.10
2023-03-06T17:06:01.521Z,6.20
2023-03-06T17:09:06.686Z,14.07
2023-03-06T17:12:10.828Z,9.23
2023-03-06T17:21:26.551Z,8.15
2023-03-06T17:24:31.220Z,11.95
2023-03-06T17:27:36.418Z,10.48
2023-03-06T17:30:40.891Z,6.40
2023-03-06T17:33:45.844Z,6.03
2023-03-06T17:36:50.226Z,7.18
2023-03-06T17:39:54.395Z,9.77
2023-03-06T17:42:58.849Z,7.97
2023-03-06T17:46:09.145Z,7.05
2023-03-06T17:49:13.852Z,6.90
2023-03-06T17:52:17.932Z,8.63
2023-03-06T17:55:22.241Z,4.95
2023-03-06T17:58:27.309Z,3.67
2023-03-06T18:01:31.914Z,6.40
2023-03-06T18:04:36.343Z,4.70
2023-03-06T18:07:40.897Z,6.72
2023-03-06T18:10:45.269Z,5.20
2023-03-06T18:13:50.569Z,7.65
2023-03-06T18:16:55.025Z,10.07
2023-03-06T18:19:59.749Z,8.52
2023-03-06T18:23:04.090Z,11.52
2023-03-06T18:26:11.533Z,6.63
2023-03-06T18:29:16.251Z,11.75
2023-03-06T18:32:20.401Z,8.70
2023-03-06T18:35:25.247Z,7.93
2023-03-06T18:38:29.819Z,8.48
2023-03-06T18:41:34.551Z,6.30
2023-03-06T18:44:39.219Z,9.82
2023-03-06T18:47:43.625Z,9.77
2023-03-06T18:50:48.128Z,8.90
2023-03-06T18:53:52.901Z,9.13
2023-03-06T18:56:57.513Z,5.95
2023-03-06T19:00:02.333Z,5.18
2023-03-06T19:03:07.025Z,11.57
2023-03-06T19:06:14.079Z,18.20
2023-03-06T19:09:19.228Z,7.28
2023-03-06T19:12:24.118Z,11.30
2023-03-06T19:15:28.579Z,10.07
2023-03-06T19:18:33.085Z,6.95
2023-03-06T19:21:37.606Z,8.00
2023-03-06T19:24:41.959Z,7.82
2023-03-06T19:27:46.585Z,9.90
2023-03-06T19:30:51.341Z,16.98
2023-03-06T19:33:56.958Z,13.60
2023-03-06T19:37:01.581Z,15.23
2023-03-06T19:40:07.146Z,13.95
2023-03-06T19:43:11.336Z,15.07
2023-03-06T19:46:16.042Z,12.30
2023-03-06T19:49:22.163Z,6.05
2023-03-06T19:52:26.703Z,18.17
2023-03-06T19:55:31.752Z,14.52
2023-03-06T19:58:36.235Z,15.95
2023-03-06T20:01:40.555Z,14.23
2023-03-06T20:04:45.169Z,9.07
2023-03-06T20:07:49.987Z,22.48
2023-03-06T20:10:54.403Z,9.63
2023-03-06T20:14:03.996Z,19.92
2023-03-06T20:17:08.849Z,6.05
2023-03-06T20:20:13.537Z,11.68
2023-03-06T20:23:17.608Z,8.77
2023-03-06T20:26:22.014Z,8.77
2023-03-06T20:29:28.415Z,7.78
2023-03-06T20:32:33.397Z,6.97
2023-03-06T20:35:42.728Z,7.25
2023-03-06T20:38:47.856Z,8.02
2023-03-06T20:41:52.287Z,5.60
2023-03-06T20:44:56.529Z,9.68
2023-03-06T20:48:01.429Z,5.22
2023-03-06T20:51:14.867Z,15.35
2023-03-06T20:54:20.366Z,4.57
2023-03-06T20:57:24.699Z,8.63
2023-03-06T21:00:28.873Z,6.43
2023-03-06T21:03:33.426Z,5.00
2023-03-06T21:06:38.187Z,5.20
2023-03-06T21:09:43.149Z,2.65
2023-03-06T21:12:47.272Z,3.15
2023-03-06T21:15:51.903Z,5.88
2023-03-06T21:18:58.257Z,5.82
2023-03-06T21:22:02.555Z,4.75
2023-03-06T21:25:06.964Z,6.53
2023-03-06T21:28:11.322Z,9.30
2023-03-06T21:31:19.036Z,7.15
2023-03-06T21:34:23.125Z,3.67
2023-03-06T21:37:27.297Z,9.88
2023-03-06T21:40:31.984Z,6.25
2023-03-06T21:43:36.335Z,4.32
2023-03-06T21:46:40.576Z,4.32
2023-03-06T21:49:45.050Z,4.50
2023-03-06T21:52:50.959Z,3.35
2023-03-06T21:55:55.076Z,8.52
2023-03-06T21:58:59.611Z,6.07
2023-03-06T22:02:03.835Z,4.30
2023-03-06T22:05:08.389Z,3.47
2023-03-06T22:08:14.338Z,7.07
2023-03-06T22:11:21.729Z,5.15
2023-03-06T22:14:26.236Z,6.13
2023-03-06T22:17:31.623Z,7.95
2023-03-06T22:20:39.368Z,8.20
2023-03-06T22:23:44.169Z,7.10
2023-03-06T22:26:48.589Z,7.97
2023-03-06T22:29:53.238Z,8.70
2023-03-06T22:32:57.677Z,14.68
2023-03-06T22:36:08.873Z,6.78
2023-03-06T22:39:14.013Z,9.48
2023-03-06T22:42:18.311Z,8.57
2023-03-06T22:45:23.191Z,8.90
2023-03-06T22:48:27.826Z,9.07
2023-03-06T22:51:32.334Z,12.43
2023-03-06T22:54:36.517Z,10.30
2023-03-06T22:57:44.252Z,11.18
2023-03-06T23:00:48.642Z,11.65
2023-03-06T23:03:59.226Z,10.07
2023-03-06T23:07:04.570Z,10.38
2023-03-06T23:10:09.913Z,12.13
2023-03-06T23:13:14.454Z,13.02
2023-03-06T23:16:18.950Z,13.82
2023-03-06T23:19:23.327Z,18.35
2023-03-06T23:22:27.557Z,14.55
2023-03-06T23:25:32.023Z,16.48
2023-03-06T23:28:36.585Z,22.20
2023-03-06T23:31:40.999Z,23.45
2023-03-06T23:34:48.964Z,21.60
2023-03-06T23:37:53.380Z,19.95
2023-03-06T23:44:09.496Z,22.42
2023-03-06T23:47:13.946Z,23.25
2023-03-06T23:50:18.074Z,23.15
2023-03-06T23:53:22.410Z,24.40
2023-03-06T23:56:28.559Z,30.05
2023-03-06T23:59:32.992Z,27.60
